createdAt,value
2022-10-12T00:00:45.819Z,12.30
2022-10-12T00:03:13.358Z,12.10
2022-10-12T00:05:40.430Z,12.10
2022-10-12T00:08:07.495Z,12.10
2022-10-12T00:10:34.210Z,12.10
2022-10-12T00:13:00.922Z,12.00
2022-10-12T00:15:27.649Z,12.00
2022-10-12T00:17:54.394Z,12.00
2022-10-12T00:20:21.254Z,12.10
2022-10-12T00:22:47.989Z,12.10
2022-10-12T00:25:14.755Z,12.10
2022-10-12T00:27:41.466Z,12.10
2022-10-12T00:30:08.883Z,12.10
2022-10-12T00:32:35.546Z,12.10
2022-10-12T00:35:02.247Z,12.20
2022-10-12T00:37:28.948Z,12.20
2022-10-12T00:39:55.674Z,12.20
2022-10-12T00:42:22.372Z,12.30
2022-10-12T00:44:50.741Z,12.30
2022-10-12T00:47:26.523Z,12.30
2022-10-12T00:49:58.073Z,12.40
2022-10-12T00:52:27.702Z,12.40
2022-10-12T00:54:55.426Z,12.40
2022-10-12T00:57:23.821Z,12.40
2022-10-12T00:59:54.824Z,12.40
2022-10-12T01:02:23.851Z,12.30
2022-10-12T01:04:50.682Z,12.10
2022-10-12T01:07:17.764Z,12.10
2022-10-12T01:09:44.672Z,12.00
2022-10-12T01:12:11.788Z,12.20
2022-10-12T01:14:38.537Z,12.30
2022-10-12T01:17:35.977Z,12.40
2022-10-12T01:20:28.912Z,12.50
2022-10-12T01:23:17.301Z,12.50
2022-10-12T01:26:28.496Z,12.60
2022-10-12T01:28:55.220Z,12.60
2022-10-12T01:31:40.818Z,12.60
2022-10-12T01:34:20.152Z,12.60
2022-10-12T01:36:57.959Z,12.70
2022-10-12T01:39:48.836Z,12.60
2022-10-12T01:42:22.743Z,12.60
2022-10-12T01:44:49.534Z,12.60
2022-10-12T01:47:16.340Z,12.60
2022-10-12T01:49:43.061Z,12.40
2022-10-12T01:52:27.907Z,12.40
2022-10-12T01:55:07.233Z,12.50
2022-10-12T01:57:56.227Z,12.60
2022-10-12T02:00:23.406Z,12.60
2022-10-12T02:03:08.942Z,12.60
2022-10-12T02:05:51.998Z,12.60
2022-10-12T02:08:21.547Z,12.50
2022-10-12T02:11:02.277Z,12.50
2022-10-12T02:13:34.849Z,12.60
2022-10-12T02:16:04.564Z,12.60
2022-10-12T02:18:33.451Z,12.50
2022-10-12T02:21:01.003Z,12.50
2022-10-12T02:23:28.676Z,12.50
2022-10-12T02:25:59.114Z,12.20
2022-10-12T02:28:29.693Z,12.00
2022-10-12T02:31:35.668Z,12.10
2022-10-12T02:34:16.403Z,12.20
2022-10-12T02:36:52.589Z,12.20
2022-10-12T02:39:26.088Z,12.20
2022-10-12T02:42:04.162Z,12.20
2022-10-12T02:44:34.414Z,12.20
2022-10-12T02:47:04.392Z,12.20
2022-10-12T02:49:33.625Z,12.20
2022-10-12T02:52:02.150Z,12.20
2022-10-12T02:54:29.681Z,12.20
2022-10-12T02:56:57.120Z,12.10
2022-10-12T02:59:24.173Z,12.00
2022-10-12T03:01:50.937Z,11.90
2022-10-12T03:04:17.698Z,12.00
2022-10-12T03:06:45.053Z,12.00
2022-10-12T03:09:11.808Z,12.00
2022-10-12T03:11:43.624Z,12.10
2022-10-12T03:14:12.575Z,12.20
2022-10-12T03:16:39.242Z,12.20
2022-10-12T03:19:05.990Z,12.10
2022-10-12T03:21:32.693Z,12.10
2022-10-12T03:23:59.435Z,12.10
2022-10-12T03:26:26.265Z,12.10
2022-10-12T03:28:53.003Z,12.20
2022-10-12T03:31:19.781Z,12.30
2022-10-12T03:33:46.470Z,12.30
2022-10-12T03:36:13.144Z,12.30
2022-10-12T03:38:39.880Z,12.30
2022-10-12T03:41:07.066Z,12.30
2022-10-12T03:43:34.698Z,12.30
2022-10-12T03:46:01.438Z,12.20
2022-10-12T03:48:28.246Z,12.20
2022-10-12T03:50:55.183Z,12.10
2022-10-12T03:53:21.914Z,12.10
2022-10-12T03:55:48.586Z,12.10
2022-10-12T03:58:15.469Z,12.10
2022-10-12T04:00:42.213Z,12.00
2022-10-12T04:03:08.893Z,11.90
2022-10-12T04:05:35.601Z,11.80
2022-10-12T04:08:02.310Z,12.00
2022-10-12T04:10:29.098Z,12.10
2022-10-12T04:12:56.602Z,12.10
2022-10-12T04:15:23.348Z,12.10
2022-10-12T04:17:50.033Z,12.10
2022-10-12T04:20:16.877Z,12.20
2022-10-12T04:22:43.577Z,12.20
2022-10-12T04:25:11.668Z,12.20
2022-10-12T04:27:38.678Z,12.20
2022-10-12T04:30:06.113Z,12.20
2022-10-12T04:32:32.881Z,12.20
2022-10-12T04:34:59.549Z,12.20
2022-10-12T04:37:27.870Z,12.20
2022-10-12T04:39:54.629Z,12.20
2022-10-12T04:42:21.694Z,12.20
2022-10-12T04:44:48.419Z,12.30
2022-10-12T04:47:15.112Z,12.20
2022-10-12T04:49:41.849Z,12.20
2022-10-12T04:52:08.786Z,12.20
2022-10-12T04:54:35.743Z,12.20
2022-10-12T04:57:02.577Z,12.20
2022-10-12T04:59:29.317Z,12.20
2022-10-12T05:01:56.153Z,12.30
2022-10-12T05:04:23.265Z,12.10
2022-10-12T05:06:50.552Z,12.10
2022-10-12T05:09:17.503Z,12.10
2022-10-12T05:11:44.514Z,12.10
2022-10-12T05:14:11.534Z,12.10
2022-10-12T05:16:38.251Z,12.20
2022-10-12T05:19:05.023Z,12.10
2022-10-12T05:21:31.716Z,12.00
2022-10-12T05:23:58.458Z,11.90
2022-10-12T05:26:25.774Z,12.00
2022-10-12T05:28:52.577Z,12.00
2022-10-12T05:31:21.598Z,12.00
2022-10-12T05:33:48.318Z,12.10
2022-10-12T05:36:15.061Z,12.20
2022-10-12T05:38:41.716Z,12.20
2022-10-12T05:41:08.572Z,12.20
2022-10-12T05:43:35.255Z,12.30
2022-10-12T05:46:01.954Z,12.10
2022-10-12T05:48:28.624Z,12.10
2022-10-12T05:50:55.469Z,12.10
2022-10-12T05:53:23.083Z,12.10
2022-10-12T05:55:58.385Z,12.00
2022-10-12T05:58:26.843Z,12.00
2022-10-12T06:00:54.119Z,12.10
2022-10-12T06:03:25.756Z,12.10
2022-10-12T06:05:53.224Z,12.10
2022-10-12T06:08:20.067Z,12.10
2022-10-12T06:10:49.863Z,12.20
2022-10-12T06:13:17.909Z,12.20
2022-10-12T06:15:46.285Z,12.30
2022-10-12T06:18:13.906Z,12.20
2022-10-12T06:20:40.696Z,12.30
2022-10-12T06:23:07.390Z,12.20
2022-10-12T06:25:34.234Z,12.30
2022-10-12T06:28:00.998Z,12.20
2022-10-12T06:30:29.198Z,12.10
2022-10-12T06:32:55.970Z,12.10
2022-10-12T06:35:22.899Z,12.10
2022-10-12T06:37:50.867Z,12.10
2022-10-12T06:40:21.051Z,12.20
2022-10-12T06:42:49.271Z,12.10
2022-10-12T06:45:16.390Z,12.20
2022-10-12T06:47:43.690Z,12.20
2022-10-12T06:50:11.215Z,12.30
2022-10-12T06:52:38.527Z,12.30
2022-10-12T06:55:06.015Z,12.40
2022-10-12T06:57:33.047Z,12.40
2022-10-12T06:59:59.767Z,12.50
2022-10-12T07:02:26.453Z,12.40
2022-10-12T07:04:53.266Z,12.50
2022-10-12T07:07:20.374Z,12.40
2022-10-12T07:09:47.220Z,12.50
2022-10-12T07:12:15.205Z,12.50
2022-10-12T07:14:42.035Z,12.50
2022-10-12T07:17:08.850Z,12.60
2022-10-12T07:19:35.553Z,12.70
2022-10-12T07:22:02.348Z,12.80
2022-10-12T07:24:36.198Z,12.70
2022-10-12T07:27:09.912Z,12.80
2022-10-12T07:29:37.755Z,12.90
2022-10-12T07:32:05.397Z,13.00
2022-10-12T07:34:32.244Z,13.00
2022-10-12T07:36:59.898Z,13.00
2022-10-12T07:39:27.056Z,12.90
2022-10-12T07:41:54.645Z,12.80
2022-10-12T07:44:22.753Z,12.70
2022-10-12T07:46:49.594Z,12.70
2022-10-12T07:49:16.817Z,12.70
2022-10-12T07:51:44.112Z,12.80
2022-10-12T07:54:10.982Z,12.90
2022-10-12T07:56:38.096Z,13.00
2022-10-12T07:59:05.093Z,13.00
2022-10-12T08:01:33.053Z,13.10
2022-10-12T08:04:01.738Z,13.10
2022-10-12T08:06:32.389Z,13.00
2022-10-12T08:09:01.127Z,13.00
2022-10-12T08:11:28.002Z,13.10
2022-10-12T08:13:56.006Z,13.00
2022-10-12T08:16:23.179Z,13.00
2022-10-12T08:18:50.331Z,12.80
2022-10-12T08:21:18.539Z,12.90
2022-10-12T08:23:46.303Z,13.10
2022-10-12T08:26:14.547Z,13.00
2022-10-12T08:28:41.770Z,12.90
2022-10-12T08:31:14.358Z,13.00
2022-10-12T08:33:41.063Z,13.20
2022-10-12T08:36:08.256Z,13.40
2022-10-12T08:38:40.011Z,13.50
2022-10-12T08:41:29.548Z,13.50
2022-10-12T08:44:24.290Z,13.60
2022-10-12T08:47:10.745Z,13.70
2022-10-12T08:49:40.246Z,13.90
2022-10-12T08:52:19.601Z,13.80
2022-10-12T08:54:46.394Z,13.80
2022-10-12T08:57:18.386Z,13.80
2022-10-12T08:59:46.356Z,13.80
2022-10-12T09:02:41.276Z,13.80
2022-10-12T09:05:11.970Z,13.80
2022-10-12T09:08:02.724Z,14.00
2022-10-12T09:10:38.316Z,14.20
2022-10-12T09:13:19.625Z,14.20
2022-10-12T09:15:51.567Z,14.40
2022-10-12T09:18:22.293Z,14.50
2022-10-12T09:20:51.421Z,14.60
2022-10-12T09:23:25.634Z,14.50
2022-10-12T09:25:56.925Z,14.60
2022-10-12T09:28:34.306Z,14.40
2022-10-12T09:31:24.279Z,14.20
2022-10-12T09:33:56.283Z,14.50
2022-10-12T09:36:25.469Z,14.90
2022-10-12T09:38:52.667Z,15.10
2022-10-12T09:41:23.845Z,15.50
2022-10-12T09:43:59.180Z,15.30
2022-10-12T09:46:41.116Z,15.40
2022-10-12T09:49:07.868Z,15.70
2022-10-12T09:51:35.180Z,15.90
2022-10-12T09:54:03.928Z,16.10
2022-10-12T09:56:38.476Z,16.30
2022-10-12T09:59:24.405Z,16.40
2022-10-12T10:02:03.819Z,16.50
2022-10-12T10:04:31.090Z,16.50
2022-10-12T10:07:12.386Z,16.60
2022-10-12T10:09:39.188Z,16.60
2022-10-12T10:12:37.063Z,16.70
2022-10-12T10:15:04.142Z,16.80
2022-10-12T10:17:34.389Z,16.80
2022-10-12T10:20:04.335Z,16.90
2022-10-12T10:22:32.303Z,17.00
2022-10-12T10:25:00.988Z,17.00
2022-10-12T10:27:39.703Z,17.30
2022-10-12T10:30:40.923Z,17.40
2022-10-12T10:33:19.026Z,17.40
2022-10-12T10:36:15.992Z,17.30
2022-10-12T10:38:55.296Z,17.40
2022-10-12T10:41:33.826Z,17.60
2022-10-12T10:44:00.595Z,17.80
2022-10-12T10:46:30.938Z,17.80
2022-10-12T10:49:06.795Z,17.70
2022-10-12T10:51:54.827Z,17.80
2022-10-12T10:54:24.448Z,17.60
2022-10-12T10:57:09.890Z,17.60
2022-10-12T10:59:39.292Z,17.80
2022-10-12T11:02:31.725Z,17.90
2022-10-12T11:05:12.840Z,18.20
2022-10-12T11:07:51.912Z,18.30
2022-10-12T11:10:48.276Z,18.30
2022-10-12T11:13:25.447Z,18.30
2022-10-12T11:16:32.700Z,18.20
2022-10-12T11:19:37.566Z,18.40
2022-10-12T11:22:11.021Z,18.30
2022-10-12T11:24:46.316Z,18.20
2022-10-12T11:27:28.337Z,18.40
2022-10-12T11:30:08.968Z,18.60
2022-10-12T11:32:41.530Z,18.60
2022-10-12T11:35:15.506Z,18.70
2022-10-12T11:38:15.370Z,18.70
2022-10-12T11:41:05.478Z,18.80
2022-10-12T11:43:46.176Z,18.80
2022-10-12T11:46:16.397Z,19.00
2022-10-12T11:48:56.337Z,19.00
2022-10-12T11:51:23.087Z,19.20
2022-10-12T11:54:14.836Z,19.30
2022-10-12T11:56:49.160Z,19.30
2022-10-12T11:59:58.262Z,19.30
2022-10-12T12:02:45.350Z,19.40
2022-10-12T12:05:16.478Z,19.10
2022-10-12T12:07:59.327Z,19.00
2022-10-12T12:10:35.054Z,19.10
2022-10-12T12:13:14.453Z,19.10
2022-10-12T12:16:01.124Z,18.90
2022-10-12T12:18:33.626Z,19.10
2022-10-12T12:21:04.322Z,19.30
2022-10-12T12:23:43.685Z,19.30
2022-10-12T12:26:15.663Z,19.50
2022-10-12T12:28:46.467Z,19.40
2022-10-12T12:31:17.865Z,19.00
2022-10-12T12:33:49.533Z,18.60
2022-10-12T12:36:40.787Z,18.70
2022-10-12T12:39:20.145Z,18.90
2022-10-12T12:42:02.732Z,18.80
2022-10-12T12:44:40.822Z,18.60
2022-10-12T12:47:26.484Z,18.90
2022-10-12T12:50:00.289Z,19.10
2022-10-12T12:52:34.260Z,19.00
2022-10-12T12:55:38.427Z,19.10
2022-10-12T12:58:15.167Z,19.20
2022-10-12T13:00:56.766Z,19.60
2022-10-12T13:03:32.390Z,20.00
2022-10-12T13:06:17.625Z,20.50
2022-10-12T13:09:22.539Z,20.90
2022-10-12T13:12:26.125Z,21.20
2022-10-12T13:15:17.613Z,21.30
2022-10-12T13:18:18.308Z,21.30
2022-10-12T13:20:50.400Z,21.20
2022-10-12T13:23:23.121Z,21.00
2022-10-12T13:26:03.919Z,21.00
2022-10-12T13:28:35.687Z,21.00
2022-10-12T13:31:24.781Z,20.80
2022-10-12T13:34:10.090Z,20.60
2022-10-12T13:36:53.183Z,20.50
2022-10-12T13:39:22.294Z,20.50
2022-10-12T13:41:53.616Z,20.60
2022-10-12T13:44:29.887Z,20.30
2022-10-12T13:46:59.183Z,20.00
2022-10-12T13:49:31.367Z,19.70
2022-10-12T13:51:59.183Z,19.40
2022-10-12T13:54:28.423Z,19.10
2022-10-12T13:57:02.750Z,18.90
2022-10-12T13:59:36.164Z,18.70
2022-10-12T14:02:03.731Z,18.60
2022-10-12T14:04:32.828Z,18.60
2022-10-12T14:07:07.404Z,18.70
2022-10-12T14:09:41.974Z,18.80
2022-10-12T14:12:10.753Z,18.70
2022-10-12T14:14:40.246Z,18.50
2022-10-12T14:17:07.825Z,18.30
2022-10-12T14:19:39.784Z,18.30
2022-10-12T14:22:08.506Z,18.30
2022-10-12T14:24:37.151Z,18.30
2022-10-12T14:27:09.926Z,18.20
2022-10-12T14:29:53.015Z,18.10
2022-10-12T14:32:41.191Z,18.00
2022-10-12T14:35:24.337Z,17.90
2022-10-12T14:37:52.733Z,17.80
2022-10-12T14:40:31.363Z,17.80
2022-10-12T14:43:05.704Z,17.80
2022-10-12T14:45:33.108Z,17.60
2022-10-12T14:48:01.506Z,17.50
2022-10-12T14:50:31.282Z,17.30
2022-10-12T14:53:04.610Z,17.10
2022-10-12T14:55:33.961Z,16.80
2022-10-12T14:58:01.263Z,16.70
2022-10-12T15:00:33.464Z,16.70
2022-10-12T15:03:00.858Z,16.70
2022-10-12T15:05:31.698Z,16.60
2022-10-12T15:07:59.571Z,16.50
2022-10-12T15:10:27.925Z,16.50
2022-10-12T15:12:55.070Z,16.50
2022-10-12T15:15:32.214Z,16.50
2022-10-12T15:17:59.487Z,16.40
2022-10-12T15:20:27.926Z,16.30
2022-10-12T15:22:54.660Z,16.10
2022-10-12T15:25:35.090Z,16.00
2022-10-12T15:28:03.227Z,15.90
2022-10-12T15:30:30.537Z,15.90
2022-10-12T15:32:57.257Z,15.80
2022-10-12T15:35:26.858Z,15.70
2022-10-12T15:37:56.300Z,15.70
2022-10-12T15:40:23.847Z,15.70
2022-10-12T15:42:50.823Z,15.70
2022-10-12T15:45:19.738Z,15.60
2022-10-12T15:47:47.372Z,15.40
2022-10-12T15:50:15.351Z,15.30
2022-10-12T15:52:42.132Z,15.20
2022-10-12T15:55:19.403Z,15.30
2022-10-12T15:57:46.749Z,15.20
2022-10-12T16:00:15.633Z,15.20
2022-10-12T16:02:42.462Z,15.20
2022-10-12T16:05:22.838Z,15.20
2022-10-12T16:07:49.850Z,15.00
2022-10-12T16:10:18.761Z,14.90
2022-10-12T16:12:48.551Z,15.00
2022-10-12T16:15:24.596Z,15.00
2022-10-12T16:17:51.904Z,15.00
2022-10-12T16:20:18.983Z,15.00
2022-10-12T16:22:46.753Z,15.00
2022-10-12T16:25:16.967Z,15.00
2022-10-12T16:27:46.590Z,15.00
2022-10-12T16:30:14.526Z,14.90
2022-10-12T16:32:41.421Z,14.70
2022-10-12T16:35:08.679Z,14.80
2022-10-12T16:37:35.918Z,14.80
2022-10-12T16:40:06.163Z,14.70
2022-10-12T16:42:33.617Z,14.60
2022-10-12T16:45:00.497Z,14.70
2022-10-12T16:47:27.257Z,14.80
2022-10-12T16:49:57.347Z,14.80
2022-10-12T16:52:25.417Z,14.70
2022-10-12T16:54:52.939Z,14.60
2022-10-12T16:57:19.954Z,14.40
2022-10-12T16:59:48.153Z,14.30
2022-10-12T17:02:16.766Z,14.10
2022-10-12T17:04:44.578Z,14.10
2022-10-12T17:07:11.613Z,13.80
2022-10-12T17:09:38.547Z,13.70
2022-10-12T17:12:05.605Z,13.50
2022-10-12T17:14:32.593Z,13.60
2022-10-12T17:16:59.485Z,13.70
2022-10-12T17:19:29.399Z,13.70
2022-10-12T17:22:00.890Z,13.60
2022-10-12T17:24:29.784Z,13.60
2022-10-12T17:27:00.211Z,13.50
2022-10-12T17:29:29.279Z,13.50
2022-10-12T17:31:56.705Z,13.40
2022-10-12T17:34:29.110Z,13.40
2022-10-12T17:36:57.579Z,13.40
2022-10-12T17:39:25.997Z,13.40
2022-10-12T17:41:53.603Z,13.30
2022-10-12T17:44:21.302Z,13.30
2022-10-12T17:46:50.683Z,13.20
2022-10-12T17:49:24.431Z,13.00
2022-10-12T17:51:51.998Z,13.00
2022-10-12T17:54:20.130Z,12.90
2022-10-12T17:56:47.378Z,12.90
2022-10-12T17:59:16.697Z,13.00
2022-10-12T18:01:43.900Z,13.00
2022-10-12T18:04:12.152Z,12.90
2022-10-12T18:06:40.251Z,12.90
2022-10-12T18:09:09.039Z,12.90
2022-10-12T18:11:37.121Z,12.90
2022-10-12T18:14:04.033Z,12.90
2022-10-12T18:16:32.995Z,12.80
2022-10-12T18:19:01.852Z,12.80
2022-10-12T18:21:30.613Z,12.70
2022-10-12T18:24:01.807Z,12.80
2022-10-12T18:26:30.545Z,12.80
2022-10-12T18:29:00.518Z,12.80
2022-10-12T18:31:28.524Z,12.80
2022-10-12T18:33:57.240Z,12.80
2022-10-12T18:36:24.855Z,12.70
2022-10-12T18:38:51.754Z,12.80
2022-10-12T18:41:25.728Z,12.80
2022-10-12T18:44:00.038Z,12.90
2022-10-12T18:46:28.782Z,13.00
2022-10-12T18:48:56.393Z,13.10
2022-10-12T18:51:29.897Z,13.10
2022-10-12T18:53:59.959Z,13.20
2022-10-12T18:56:27.415Z,13.20
2022-10-12T18:58:55.975Z,13.20
2022-10-12T19:01:24.745Z,13.20
2022-10-12T19:03:53.136Z,13.20
2022-10-12T19:06:23.239Z,13.20
2022-10-12T19:08:50.066Z,13.00
2022-10-12T19:11:19.494Z,12.90
2022-10-12T19:14:19.959Z,12.90
2022-10-12T19:16:50.688Z,12.80
2022-10-12T19:19:21.069Z,12.80
2022-10-12T19:21:51.412Z,12.80
2022-10-12T19:24:18.557Z,12.90
2022-10-12T19:26:45.317Z,12.90
2022-10-12T19:29:12.070Z,12.90
2022-10-12T19:31:42.252Z,12.90
2022-10-12T19:34:11.811Z,12.90
2022-10-12T19:36:39.795Z,13.00
2022-10-12T19:39:11.636Z,12.90
2022-10-12T19:41:38.760Z,12.90
2022-10-12T19:44:05.991Z,12.80
2022-10-12T19:46:33.192Z,12.80
2022-10-12T19:49:00.875Z,12.70
2022-10-12T19:51:29.776Z,12.50
2022-10-12T19:53:58.109Z,12.40
2022-10-12T19:56:25.178Z,12.40
2022-10-12T19:58:53.244Z,12.30
2022-10-12T20:01:22.454Z,12.30
2022-10-12T20:03:50.830Z,12.30
2022-10-12T20:06:22.834Z,12.50
2022-10-12T20:08:51.648Z,12.50
2022-10-12T20:11:22.491Z,12.60
2022-10-12T20:13:51.300Z,12.60
2022-10-12T20:16:19.660Z,12.60
2022-10-12T20:18:46.896Z,12.70
2022-10-12T20:21:15.369Z,12.60
2022-10-12T20:23:43.096Z,12.40
2022-10-12T20:26:29.367Z,12.30
2022-10-12T20:28:56.117Z,12.40
2022-10-12T20:31:27.496Z,12.50
2022-10-12T20:33:55.951Z,12.40
2022-10-12T20:36:25.230Z,12.50
2022-10-12T20:38:52.582Z,12.40
2022-10-12T20:41:21.653Z,12.40
2022-10-12T20:43:48.580Z,12.40
2022-10-12T20:46:17.573Z,12.40
2022-10-12T20:48:45.656Z,12.30
2022-10-12T20:51:21.501Z,12.30
2022-10-12T20:53:48.443Z,12.30
2022-10-12T20:56:15.142Z,12.50
2022-10-12T20:58:41.909Z,12.60
2022-10-12T21:01:11.222Z,12.60
2022-10-12T21:03:38.615Z,12.70
2022-10-12T21:06:08.052Z,12.70
2022-10-12T21:08:35.742Z,12.60
2022-10-12T21:11:03.578Z,12.40
2022-10-12T21:13:32.194Z,12.40
2022-10-12T21:15:59.098Z,12.50
2022-10-12T21:18:26.314Z,12.50
2022-10-12T21:21:01.871Z,12.40
2022-10-12T21:23:29.313Z,12.40
2022-10-12T21:25:56.128Z,12.40
2022-10-12T21:28:23.688Z,12.40
2022-10-12T21:30:50.841Z,12.40
2022-10-12T21:33:18.442Z,12.30
2022-10-12T21:35:45.441Z,12.20
2022-10-12T21:38:12.132Z,12.10
2022-10-12T21:40:38.877Z,11.90
2022-10-12T21:43:05.617Z,11.80
2022-10-12T21:45:33.197Z,11.70
2022-10-12T21:48:00.101Z,11.70
2022-10-12T21:50:27.404Z,11.60
2022-10-12T21:52:59.315Z,11.30
2022-10-12T21:55:27.280Z,11.30
2022-10-12T21:57:53.951Z,11.30
2022-10-12T22:00:20.784Z,11.40
2022-10-12T22:02:48.275Z,11.30
2022-10-12T22:05:15.072Z,11.30
2022-10-12T22:07:42.846Z,11.10
2022-10-12T22:10:11.308Z,11.10
2022-10-12T22:12:38.816Z,11.20
2022-10-12T22:15:06.281Z,11.20
2022-10-12T22:17:34.660Z,11.10
2022-10-12T22:20:01.699Z,11.10
2022-10-12T22:22:29.319Z,11.00
2022-10-12T22:24:56.039Z,11.00
2022-10-12T22:27:23.258Z,11.00
2022-10-12T22:29:49.973Z,11.00
2022-10-12T22:32:16.918Z,11.00
2022-10-12T22:34:43.838Z,10.90
2022-10-12T22:37:10.540Z,10.80
2022-10-12T22:39:37.251Z,10.70
2022-10-12T22:42:04.020Z,10.70
2022-10-12T22:44:30.840Z,10.80
2022-10-12T22:46:57.558Z,10.80
2022-10-12T22:49:24.291Z,10.60
2022-10-12T22:51:50.993Z,10.60
2022-10-12T22:54:17.699Z,10.40
2022-10-12T22:56:45.423Z,10.40
2022-10-12T22:59:14.083Z,10.50
2022-10-12T23:01:41.045Z,10.50
2022-10-12T23:04:08.191Z,10.50
2022-10-12T23:06:34.962Z,10.60
2022-10-12T23:09:02.237Z,10.60
2022-10-12T23:11:29.828Z,10.50
2022-10-12T23:13:57.911Z,10.50
2022-10-12T23:16:30.457Z,10.40
2022-10-12T23:19:02.315Z,10.40
2022-10-12T23:21:30.854Z,10.50
2022-10-12T23:23:59.370Z,10.50
2022-10-12T23:26:27.988Z,10.60
2022-10-12T23:28:55.486Z,10.60
2022-10-12T23:31:25.350Z,10.60
2022-10-12T23:34:04.605Z,10.60
2022-10-12T23:36:33.213Z,10.60
2022-10-12T23:39:01.266Z,10.50
2022-10-12T23:41:28.105Z,10.50
2022-10-12T23:43:54.822Z,10.60
2022-10-12T23:46:22.048Z,10.60
2022-10-12T23:48:48.937Z,10.70
2022-10-12T23:51:15.811Z,10.60
2022-10-12T23:53:42.780Z,10.70
2022-10-12T23:56:09.797Z,10.70
2022-10-12T23:58:36.669Z,10.80
